Airfield :







YOU CAN JOIN US ON...

 
LOGIN :

Register | Disclaimer

   EN    FR    IT 

 









Legend :    VFR   Marginal VFR   IFR   Intensive IFR   Very Intensive IFR
Visi :
Ceiling :
>= 8 km
>= 3000ft
5 to 8 km
1000 to 3000 ft
1500m to 5 km
500 to 1000 ft
800 to 1500m
200 to 500 ft
< 800m
< 200 ft
Symbols :   Thunderstorms  Fog  Heavy snow  Heavy precipitations  Wind > 20 kt






- Airport Elevation : 160 ft
- IATA code : YYR


CYYR - Goose Bay

CURRENT METAR :
  • 180500Z 27012KT 15SM SKC M19/M30 A3019 RMK AURBO SLP229

EXPIRED METARs :
  • 180400Z 26007KT 15SM SKC M20/M29 A3018 RMK SLP227
  • 180300Z 26007KT 15SM SKC M19/M29 A3017 RMK SLP223

TAF TAF CYYR
Valid from the 18 at 06:00 until the 19 at 06:00 UTC


180530Z 1806/1906 27010KT P6SM SKC
FM181600 25012KT P6SM FEW015
FM182100 21008KT P6SM SCT080 BKN140
FM190300 21005KT P6SM OVC140 RMK NXT FCST BY 181200Z



MET'MAP, your aeronautical weather chart ! - Copyright ORBIFLY December 2007 - Disclaimer

ORBIFLY MET'MAP TEAM :

Programming & Development : Alexandra Zaïnal
Concept & original design : Baudouin d'Aumeries
Assistance for programming : Marc-Olivier Méhu
Technical & hardware support : Manuel Goepfert

Contact : metmap@orbifly.com




SOURCES & CREDITS :

   NOAA